sensor_id;sensor_type;location;lat;lon;timestamp;pressure;altitude;pressure_sealevel;temperature;humidity
70589;BME280;58152;49.202;18.744;2023-08-07T00:00:19;96270.25;;;15.19;80.33
70589;BME280;58152;49.202;18.744;2023-08-07T00:02:44;96257.56;;;15.13;80.55
70589;BME280;58152;49.202;18.744;2023-08-07T00:05:09;96247.59;;;15.06;80.89
70589;BME280;58152;49.202;18.744;2023-08-07T00:07:35;96266.81;;;15.08;80.30
70589;BME280;58152;49.202;18.744;2023-08-07T00:10:00;96256.63;;;15.03;80.85
70589;BME280;58152;49.202;18.744;2023-08-07T00:12:26;96254.22;;;15.00;80.69
70589;BME280;58152;49.202;18.744;2023-08-07T00:14:52;96264.56;;;15.03;80.72
70589;BME280;58152;49.202;18.744;2023-08-07T00:17:18;96261.41;;;14.98;81.37
70589;BME280;58152;49.202;18.744;2023-08-07T00:19:43;96261.78;;;14.93;81.59
70589;BME280;58152;49.202;18.744;2023-08-07T00:22:09;96267.19;;;14.92;81.85
70589;BME280;58152;49.202;18.744;2023-08-07T00:24:34;96258.09;;;14.85;81.68
70589;BME280;58152;49.202;18.744;2023-08-07T00:27:00;96265.06;;;14.86;81.94
70589;BME280;58152;49.202;18.744;2023-08-07T00:29:26;96265.16;;;14.84;82.07
70589;BME280;58152;49.202;18.744;2023-08-07T00:31:51;96260.13;;;14.81;82.13
70589;BME280;58152;49.202;18.744;2023-08-07T00:34:17;96266.38;;;14.80;82.25
70589;BME280;58152;49.202;18.744;2023-08-07T00:36:42;96260.59;;;14.75;82.27
70589;BME280;58152;49.202;18.744;2023-08-07T00:39:08;96266.75;;;14.76;82.56
70589;BME280;58152;49.202;18.744;2023-08-07T00:41:33;96258.56;;;14.79;82.79
70589;BME280;58152;49.202;18.744;2023-08-07T00:43:59;96252.56;;;14.77;82.77
70589;BME280;58152;49.202;18.744;2023-08-07T00:46:24;96265.41;;;14.81;83.02
70589;BME280;58152;49.202;18.744;2023-08-07T00:48:51;96252.69;;;14.75;82.68
70589;BME280;58152;49.202;18.744;2023-08-07T00:51:18;96260.59;;;14.75;82.97
70589;BME280;58152;49.202;18.744;2023-08-07T00:53:43;96262.03;;;14.79;83.31
70589;BME280;58152;49.202;18.744;2023-08-07T00:56:09;96270.09;;;14.78;83.80
70589;BME280;58152;49.202;18.744;2023-08-07T00:58:34;96271.06;;;14.77;83.26
70589;BME280;58152;49.202;18.744;2023-08-07T01:01:01;96264.94;;;14.76;83.42
70589;BME280;58152;49.202;18.744;2023-08-07T01:03:27;96266.47;;;14.79;83.91
70589;BME280;58152;49.202;18.744;2023-08-07T01:05:53;96256.28;;;14.74;83.44
70589;BME280;58152;49.202;18.744;2023-08-07T01:08:19;96264.69;;;14.79;83.45
70589;BME280;58152;49.202;18.744;2023-08-07T01:13:42;96265.28;;;14.83;83.25
70589;BME280;58152;49.202;18.744;2023-08-07T01:16:31;96263.84;;;14.79;82.87
70589;BME280;58152;49.202;18.744;2023-08-07T01:19:03;96270.09;;;14.78;82.84
70589;BME280;58152;49.202;18.744;2023-08-07T01:21:32;96279.44;;;14.82;82.60
70589;BME280;58152;49.202;18.744;2023-08-07T01:23:57;96267.94;;;14.71;82.26
70589;BME280;58152;49.202;18.744;2023-08-07T01:26:23;96267.69;;;14.74;82.35
70589;BME280;58152;49.202;18.744;2023-08-07T01:29:04;96273.69;;;14.77;82.28
70589;BME280;58152;49.202;18.744;2023-08-07T01:31:33;96265.41;;;14.70;82.40
70589;BME280;58152;49.202;18.744;2023-08-07T01:34:06;96279.44;;;14.70;82.50
70589;BME280;58152;49.202;18.744;2023-08-07T01:36:34;96271.88;;;14.66;82.03
70589;BME280;58152;49.202;18.744;2023-08-07T01:39:01;96274.53;;;14.66;81.83
70589;BME280;58152;49.202;18.744;2023-08-07T01:41:27;96281.16;;;14.71;81.62
70589;BME280;58152;49.202;18.744;2023-08-07T01:43:54;96281.38;;;14.68;81.58
70589;BME280;58152;49.202;18.744;2023-08-07T01:46:20;96289.44;;;14.67;81.41
70589;BME280;58152;49.202;18.744;2023-08-07T01:48:45;96291.22;;;14.66;81.55
70589;BME280;58152;49.202;18.744;2023-08-07T01:51:11;96292.66;;;14.70;80.98
70589;BME280;58152;49.202;18.744;2023-08-07T01:53:36;96292.06;;;14.67;81.32
70589;BME280;58152;49.202;18.744;2023-08-07T01:56:02;96287.16;;;14.62;80.75
70589;BME280;58152;49.202;18.744;2023-08-07T01:58:28;96292.44;;;14.62;80.74
70589;BME280;58152;49.202;18.744;2023-08-07T02:00:53;96295.78;;;14.64;80.46
70589;BME280;58152;49.202;18.744;2023-08-07T02:03:19;96293.50;;;14.60;80.42
70589;BME280;58152;49.202;18.744;2023-08-07T02:05:45;96295.44;;;14.58;80.45
70589;BME280;58152;49.202;18.744;2023-08-07T02:08:11;96289.53;;;14.54;80.18
70589;BME280;58152;49.202;18.744;2023-08-07T02:10:36;96300.81;;;14.56;80.18
70589;BME280;58152;49.202;18.744;2023-08-07T02:13:02;96313.53;;;14.51;79.76
70589;BME280;58152;49.202;18.744;2023-08-07T02:15:27;96299.63;;;14.49;79.95
70589;BME280;58152;49.202;18.744;2023-08-07T02:17:53;96306.56;;;14.50;79.84
70589;BME280;58152;49.202;18.744;2023-08-07T02:20:18;96302.31;;;14.47;79.88
70589;BME280;58152;49.202;18.744;2023-08-07T02:22:44;96298.13;;;14.45;79.73
70589;BME280;58152;49.202;18.744;2023-08-07T02:25:09;96308.56;;;14.46;79.93
70589;BME280;58152;49.202;18.744;2023-08-07T02:27:35;96309.34;;;14.48;79.96
70589;BME280;58152;49.202;18.744;2023-08-07T02:30:00;96307.28;;;14.52;79.70
70589;BME280;58152;49.202;18.744;2023-08-07T02:32:28;96306.69;;;14.48;79.24
70589;BME280;58152;49.202;18.744;2023-08-07T02:34:53;96309.22;;;14.50;79.24
70589;BME280;58152;49.202;18.744;2023-08-07T02:37:18;96316.16;;;14.51;79.06
70589;BME280;58152;49.202;18.744;2023-08-07T02:39:45;96309.91;;;14.52;79.39
70589;BME280;58152;49.202;18.744;2023-08-07T02:42:11;96314.97;;;14.55;78.83
70589;BME280;58152;49.202;18.744;2023-08-07T02:44:37;96310.88;;;14.51;78.80
70589;BME280;58152;49.202;18.744;2023-08-07T02:47:02;96310.78;;;14.53;78.87
70589;BME280;58152;49.202;18.744;2023-08-07T02:49:28;96311.22;;;14.46;78.86
70589;BME280;58152;49.202;18.744;2023-08-07T02:51:53;96316.63;;;14.45;78.79
70589;BME280;58152;49.202;18.744;2023-08-07T02:54:19;96309.75;;;14.42;78.92
70589;BME280;58152;49.202;18.744;2023-08-07T02:56:44;96305.44;;;14.41;78.76
70589;BME280;58152;49.202;18.744;2023-08-07T02:59:09;96315.88;;;14.43;78.82
70589;BME280;58152;49.202;18.744;2023-08-07T03:01:35;96319.38;;;14.43;78.65
70589;BME280;58152;49.202;18.744;2023-08-07T03:04:00;96323.69;;;14.44;78.33
70589;BME280;58152;49.202;18.744;2023-08-07T03:06:26;96323.91;;;14.41;78.86
70589;BME280;58152;49.202;18.744;2023-08-07T03:08:51;96325.72;;;14.41;78.27
70589;BME280;58152;49.202;18.744;2023-08-07T03:11:17;96320.09;;;14.34;78.66
70589;BME280;58152;49.202;18.744;2023-08-07T03:13:42;96334.81;;;14.37;78.75
70589;BME280;58152;49.202;18.744;2023-08-07T03:16:09;96324.03;;;14.40;78.75
70589;BME280;58152;49.202;18.744;2023-08-07T03:18:35;96323.22;;;14.39;78.60
70589;BME280;58152;49.202;18.744;2023-08-07T03:21:00;96321.63;;;14.37;78.56
70589;BME280;58152;49.202;18.744;2023-08-07T03:23:26;96322.59;;;14.36;78.41
70589;BME280;58152;49.202;18.744;2023-08-07T03:26:06;96329.91;;;14.32;78.12
70589;BME280;58152;49.202;18.744;2023-08-07T03:28:32;96328.09;;;14.33;78.00
70589;BME280;58152;49.202;18.744;2023-08-07T03:30:58;96335.06;;;14.34;78.17
70589;BME280;58152;49.202;18.744;2023-08-07T03:33:23;96336.63;;;14.36;78.41
70589;BME280;58152;49.202;18.744;2023-08-07T03:35:49;96339.63;;;14.32;78.36
70589;BME280;58152;49.202;18.744;2023-08-07T03:38:14;96337.09;;;14.30;78.26
70589;BME280;58152;49.202;18.744;2023-08-07T03:40:40;96343.09;;;14.32;78.21
70589;BME280;58152;49.202;18.744;2023-08-07T03:43:05;96341.41;;;14.31;77.97
70589;BME280;58152;49.202;18.744;2023-08-07T03:45:30;96340.59;;;14.31;77.83
70589;BME280;58152;49.202;18.744;2023-08-07T03:47:56;96339.75;;;14.30;77.89
70589;BME280;58152;49.202;18.744;2023-08-07T03:50:22;96345.84;;;14.31;77.52
70589;BME280;58152;49.202;18.744;2023-08-07T03:52:47;96350.66;;;14.26;77.58
70589;BME280;58152;49.202;18.744;2023-08-07T03:55:13;96354.75;;;14.30;77.23
70589;BME280;58152;49.202;18.744;2023-08-07T03:57:38;96360.84;;;14.30;77.26
70589;BME280;58152;49.202;18.744;2023-08-07T04:00:04;96361.91;;;14.28;77.25
70589;BME280;58152;49.202;18.744;2023-08-07T04:02:30;96366.97;;;14.31;77.46
70589;BME280;58152;49.202;18.744;2023-08-07T04:04:55;96371.06;;;14.35;77.47
70589;BME280;58152;49.202;18.744;2023-08-07T04:07:21;96364.31;;;14.31;77.21
70589;BME280;58152;49.202;18.744;2023-08-07T04:09:47;96355.78;;;14.27;77.60
70589;BME280;58152;49.202;18.744;2023-08-07T04:12:12;96360.94;;;14.29;77.60
70589;BME280;58152;49.202;18.744;2023-08-07T04:14:38;96363.59;;;14.29;77.65
70589;BME280;58152;49.202;18.744;2023-08-07T04:17:03;96364.41;;;14.29;77.87
70589;BME280;58152;49.202;18.744;2023-08-07T04:19:29;96368.16;;;14.27;78.37
70589;BME280;58152;49.202;18.744;2023-08-07T04:21:54;96366.97;;;14.31;77.70
70589;BME280;58152;49.202;18.744;2023-08-07T04:24:20;96360.59;;;14.22;77.68
70589;BME280;58152;49.202;18.744;2023-08-07T04:26:45;96373.78;;;14.22;77.53
70589;BME280;58152;49.202;18.744;2023-08-07T04:29:11;96372.69;;;14.24;77.73
70589;BME280;58152;49.202;18.744;2023-08-07T04:31:36;96363.34;;;14.20;77.61
70589;BME280;58152;49.202;18.744;2023-08-07T04:34:02;96360.72;;;14.20;77.67
70589;BME280;58152;49.202;18.744;2023-08-07T04:36:27;96367.41;;;14.24;77.43
70589;BME280;58152;49.202;18.744;2023-08-07T04:38:53;96363.34;;;14.20;77.32
70589;BME280;58152;49.202;18.744;2023-08-07T04:41:20;96366.69;;;14.22;77.23
70589;BME280;58152;49.202;18.744;2023-08-07T04:43:46;96363.84;;;14.26;77.26
70589;BME280;58152;49.202;18.744;2023-08-07T04:46:13;96353.03;;;14.29;77.45
70589;BME280;58152;49.202;18.744;2023-08-07T04:48:41;96366.00;;;14.32;76.33
70589;BME280;58152;49.202;18.744;2023-08-07T04:51:07;96369.34;;;14.34;76.54
70589;BME280;58152;49.202;18.744;2023-08-07T04:53:32;96367.94;;;14.30;76.97
70589;BME280;58152;49.202;18.744;2023-08-07T04:55:59;96367.94;;;14.30;76.76
70589;BME280;58152;49.202;18.744;2023-08-07T04:58:25;96365.28;;;14.30;76.80
70589;BME280;58152;49.202;18.744;2023-08-07T05:00:55;96369.69;;;14.29;76.81
70589;BME280;58152;49.202;18.744;2023-08-07T05:03:20;96370.03;;;14.24;76.31
70589;BME280;58152;49.202;18.744;2023-08-07T05:05:46;96376.06;;;14.27;76.62
70589;BME280;58152;49.202;18.744;2023-08-07T05:08:11;96364.69;;;14.26;76.42
70589;BME280;58152;49.202;18.744;2023-08-07T05:10:37;96367.31;;;14.26;76.62
70589;BME280;58152;49.202;18.744;2023-08-07T05:13:02;96368.28;;;14.25;76.26
70589;BME280;58152;49.202;18.744;2023-08-07T05:15:28;96365.84;;;14.22;76.16
70589;BME280;58152;49.202;18.744;2023-08-07T05:17:55;96374.59;;;14.22;76.16
70589;BME280;58152;49.202;18.744;2023-08-07T05:20:21;96370.91;;;14.25;76.00
70589;BME280;58152;49.202;18.744;2023-08-07T05:22:46;96381.72;;;14.33;76.07
70589;BME280;58152;49.202;18.744;2023-08-07T05:25:12;96359.16;;;14.29;75.83
70589;BME280;58152;49.202;18.744;2023-08-07T05:27:41;96364.69;;;14.26;75.93
70589;BME280;58152;49.202;18.744;2023-08-07T05:30:07;96364.69;;;14.26;75.57
70589;BME280;58152;49.202;18.744;2023-08-07T05:32:33;96376.69;;;14.30;75.95
70589;BME280;58152;49.202;18.744;2023-08-07T05:34:58;96366.56;;;14.24;75.60
70589;BME280;58152;49.202;18.744;2023-08-07T05:37:24;96382.19;;;14.27;75.46
70589;BME280;58152;49.202;18.744;2023-08-07T05:39:49;96372.59;;;14.26;75.52
70589;BME280;58152;49.202;18.744;2023-08-07T05:42:15;96373.31;;;14.28;75.43
70589;BME280;58152;49.202;18.744;2023-08-07T05:44:40;96372.25;;;14.31;75.66
70589;BME280;58152;49.202;18.744;2023-08-07T05:47:06;96393.22;;;14.32;75.37
70589;BME280;58152;49.202;18.744;2023-08-07T05:49:32;96379.41;;;14.29;75.34
70589;BME280;58152;49.202;18.744;2023-08-07T05:51:57;96388.69;;;14.34;75.37
70589;BME280;58152;49.202;18.744;2023-08-07T05:54:22;96381.59;;;14.35;75.26
70589;BME280;58152;49.202;18.744;2023-08-07T05:56:48;96380.41;;;14.39;75.20
70589;BME280;58152;49.202;18.744;2023-08-07T05:59:13;96383.16;;;14.37;74.87
70589;BME280;58152;49.202;18.744;2023-08-07T06:01:39;96382.09;;;14.40;74.98
70589;BME280;58152;49.202;18.744;2023-08-07T06:04:06;96391.06;;;14.37;74.77
70589;BME280;58152;49.202;18.744;2023-08-07T06:06:31;96392.53;;;14.41;74.75
70589;BME280;58152;49.202;18.744;2023-08-07T06:08:59;96392.75;;;14.38;74.26
70589;BME280;58152;49.202;18.744;2023-08-07T06:11:25;96400.78;;;14.37;74.50
70589;BME280;58152;49.202;18.744;2023-08-07T06:13:50;96395.72;;;14.34;74.61
70589;BME280;58152;49.202;18.744;2023-08-07T06:16:16;96406.41;;;14.32;74.52
70589;BME280;58152;49.202;18.744;2023-08-07T06:18:41;96406.63;;;14.29;74.34
70589;BME280;58152;49.202;18.744;2023-08-07T06:21:08;96404.97;;;14.28;74.50
70589;BME280;58152;49.202;18.744;2023-08-07T06:23:59;96413.00;;;14.27;74.40
70589;BME280;58152;49.202;18.744;2023-08-07T06:27:13;96402.03;;;14.20;73.37
70589;BME280;58152;49.202;18.744;2023-08-07T06:29:45;96403.13;;;14.17;73.71
70589;BME280;58152;49.202;18.744;2023-08-07T06:32:34;96414.41;;;14.19;73.65
70589;BME280;58152;49.202;18.744;2023-08-07T06:35:43;96413.47;;;14.20;73.76
70589;BME280;58152;49.202;18.744;2023-08-07T06:38:23;96426.41;;;14.23;74.05
70589;BME280;58152;49.202;18.744;2023-08-07T06:41:14;96428.00;;;14.26;73.91
70589;BME280;58152;49.202;18.744;2023-08-07T06:43:43;96426.91;;;14.29;73.70
70589;BME280;58152;49.202;18.744;2023-08-07T06:46:10;96435.56;;;14.31;73.76
70589;BME280;58152;49.202;18.744;2023-08-07T06:55:31;96431.25;;;14.30;73.84
70589;BME280;58152;49.202;18.744;2023-08-07T06:58:20;96423.16;;;14.20;73.78
70589;BME280;58152;49.202;18.744;2023-08-07T07:14:46;96445.03;;;14.33;73.61
70589;BME280;58152;49.202;18.744;2023-08-07T07:43:25;96470.34;;;14.36;72.12
70589;BME280;58152;49.202;18.744;2023-08-07T07:45:51;96466.03;;;14.35;72.60
70589;BME280;58152;49.202;18.744;2023-08-07T07:48:17;96480.06;;;14.35;72.61
70589;BME280;58152;49.202;18.744;2023-08-07T07:50:48;96471.75;;;14.29;72.14
70589;BME280;58152;49.202;18.744;2023-08-07T07:53:14;96483.75;;;14.33;72.29
70589;BME280;58152;49.202;18.744;2023-08-07T07:55:40;96480.06;;;14.35;72.57
70589;BME280;58152;49.202;18.744;2023-08-07T07:58:06;96485.63;;;14.43;72.79
70589;BME280;58152;49.202;18.744;2023-08-07T08:00:31;96483.09;;;14.42;72.33
70589;BME280;58152;49.202;18.744;2023-08-07T08:06:54;96484.88;;;14.41;72.09
70589;BME280;58152;49.202;18.744;2023-08-07T08:09:22;96495.09;;;14.46;71.80
70589;BME280;58152;49.202;18.744;2023-08-07T08:19:27;96493.34;;;14.34;71.39
70589;BME280;58152;49.202;18.744;2023-08-07T08:32:36;96516.88;;;14.37;71.32
70589;BME280;58152;49.202;18.744;2023-08-07T08:35:01;96520.72;;;14.33;71.28
70589;BME280;58152;49.202;18.744;2023-08-07T08:37:27;96522.16;;;14.37;71.84
70589;BME280;58152;49.202;18.744;2023-08-07T08:39:54;96521.44;;;14.35;71.23
70589;BME280;58152;49.202;18.744;2023-08-07T08:42:21;96520.72;;;14.33;71.14
70589;BME280;58152;49.202;18.744;2023-08-07T08:44:59;96514.09;;;14.27;70.49
70589;BME280;58152;49.202;18.744;2023-08-07T08:47:26;96524.44;;;14.30;71.20
70589;BME280;58152;49.202;18.744;2023-08-07T08:53:05;96519.53;;;14.37;71.25
70589;BME280;58152;49.202;18.744;2023-08-07T08:55:33;96521.44;;;14.35;70.86
70589;BME280;58152;49.202;18.744;2023-08-07T08:57:59;96532.59;;;14.38;70.80
70589;BME280;58152;49.202;18.744;2023-08-07T09:00:26;96536.69;;;14.42;71.10
70589;BME280;58152;49.202;18.744;2023-08-07T09:02:52;96544.63;;;14.42;71.07
70589;BME280;58152;49.202;18.744;2023-08-07T09:05:19;96534.19;;;14.41;71.51
70589;BME280;58152;49.202;18.744;2023-08-07T09:07:51;96541.88;;;14.44;71.02
70589;BME280;58152;49.202;18.744;2023-08-07T09:10:16;96551.69;;;14.42;70.84
70589;BME280;58152;49.202;18.744;2023-08-07T09:12:49;96540.75;;;14.48;71.33
70589;BME280;58152;49.202;18.744;2023-08-07T09:15:19;96548.66;;;14.48;71.08
70589;BME280;58152;49.202;18.744;2023-08-07T09:17:45;96547.34;;;14.54;71.39
70589;BME280;58152;49.202;18.744;2023-08-07T09:20:12;96551.88;;;14.52;71.66
70589;BME280;58152;49.202;18.744;2023-08-07T09:22:39;96555.16;;;14.55;71.74
70589;BME280;58152;49.202;18.744;2023-08-07T09:25:05;96550.50;;;14.59;71.71
70589;BME280;58152;49.202;18.744;2023-08-07T09:27:31;96550.50;;;14.59;71.40
70589;BME280;58152;49.202;18.744;2023-08-07T09:29:57;96562.84;;;14.58;71.34
70589;BME280;58152;49.202;18.744;2023-08-07T09:32:23;96557.22;;;14.63;71.59
70589;BME280;58152;49.202;18.744;2023-08-07T09:34:50;96549.19;;;14.64;71.30
70589;BME280;58152;49.202;18.744;2023-08-07T09:37:17;96557.38;;;14.72;71.31
70589;BME280;58152;49.202;18.744;2023-08-07T09:39:42;96555.47;;;14.74;71.45
70589;BME280;58152;49.202;18.744;2023-08-07T09:42:15;96560.25;;;14.69;70.78
70589;BME280;58152;49.202;18.744;2023-08-07T09:44:41;96559.41;;;14.69;71.55
70589;BME280;58152;49.202;18.744;2023-08-07T09:47:14;96558.34;;;14.71;71.23
70589;BME280;58152;49.202;18.744;2023-08-07T09:49:40;96554.88;;;14.71;71.34
70589;BME280;58152;49.202;18.744;2023-08-07T09:52:07;96560.16;;;14.71;71.30
70589;BME280;58152;49.202;18.744;2023-08-07T09:54:33;96576.09;;;14.69;70.81
70589;BME280;58152;49.202;18.744;2023-08-07T09:57:01;96568.78;;;14.73;71.08
70589;BME280;58152;49.202;18.744;2023-08-07T09:59:27;96581.28;;;14.71;71.32
70589;BME280;58152;49.202;18.744;2023-08-07T10:01:54;96571.78;;;14.68;71.34
70589;BME280;58152;49.202;18.744;2023-08-07T10:04:21;96575.88;;;14.72;71.33
70589;BME280;58152;49.202;18.744;2023-08-07T10:06:47;96577.53;;;14.73;71.55
70589;BME280;58152;49.202;18.744;2023-08-07T10:09:13;96579.97;;;14.77;71.02
70589;BME280;58152;49.202;18.744;2023-08-07T10:11:39;96580.41;;;14.70;71.30
70589;BME280;58152;49.202;18.744;2023-08-07T10:14:08;96580.03;;;14.64;71.29
70589;BME280;58152;49.202;18.744;2023-08-07T10:16:34;96581.84;;;14.63;71.23
70589;BME280;58152;49.202;18.744;2023-08-07T10:19:05;96585.19;;;14.65;71.20
70589;BME280;58152;49.202;18.744;2023-08-07T10:21:33;96585.94;;;14.67;71.70
70589;BME280;58152;49.202;18.744;2023-08-07T10:24:03;96597.66;;;14.63;71.92
70589;BME280;58152;49.202;18.744;2023-08-07T10:26:30;96600.31;;;14.63;72.09
70589;BME280;58152;49.202;18.744;2023-08-07T10:28:56;96598.63;;;14.62;71.88
70589;BME280;58152;49.202;18.744;2023-08-07T10:31:23;96593.56;;;14.59;72.46
70589;BME280;58152;49.202;18.744;2023-08-07T10:33:49;96588.50;;;14.56;72.58
70589;BME280;58152;49.202;18.744;2023-08-07T10:36:16;96596.09;;;14.61;72.80
70589;BME280;58152;49.202;18.744;2023-08-07T10:39:02;96604.84;;;14.61;73.02
70589;BME280;58152;49.202;18.744;2023-08-07T10:41:56;96597.59;;;14.52;73.03
70589;BME280;58152;49.202;18.744;2023-08-07T10:44:26;96609.03;;;14.53;73.65
70589;BME280;58152;49.202;18.744;2023-08-07T10:46:56;96611.66;;;14.53;74.07
70589;BME280;58152;49.202;18.744;2023-08-07T10:49:35;96612.59;;;14.52;74.06
70589;BME280;58152;49.202;18.744;2023-08-07T10:52:08;96612.72;;;14.50;74.64
70589;BME280;58152;49.202;18.744;2023-08-07T10:54:49;96611.03;;;14.49;74.95
70589;BME280;58152;49.202;18.744;2023-08-07T10:57:16;96611.88;;;14.49;75.25
70589;BME280;58152;49.202;18.744;2023-08-07T11:00:02;96618.72;;;14.52;75.77
70589;BME280;58152;49.202;18.744;2023-08-07T11:02:31;96614.06;;;14.56;75.87
70589;BME280;58152;49.202;18.744;2023-08-07T11:04:59;96616.47;;;14.59;75.39
70589;BME280;58152;49.202;18.744;2023-08-07T11:07:28;96621.63;;;14.60;75.47
70589;BME280;58152;49.202;18.744;2023-08-07T11:09:54;96610.47;;;14.57;75.73
70589;BME280;58152;49.202;18.744;2023-08-07T11:12:20;96610.69;;;14.54;76.08
70589;BME280;58152;49.202;18.744;2023-08-07T11:14:46;96614.91;;;14.56;76.23
70589;BME280;58152;49.202;18.744;2023-08-07T11:17:12;96614.81;;;14.58;76.03
70589;BME280;58152;49.202;18.744;2023-08-07T11:19:38;96620.69;;;14.61;76.18
70589;BME280;58152;49.202;18.744;2023-08-07T11:22:04;96618.66;;;14.65;76.07
70589;BME280;58152;49.202;18.744;2023-08-07T11:24:30;96613.28;;;14.66;76.25
70589;BME280;58152;49.202;18.744;2023-08-07T11:26:58;96615.69;;;14.69;76.41
70589;BME280;58152;49.202;18.744;2023-08-07T11:29:24;96619.28;;;14.68;76.09
70589;BME280;58152;49.202;18.744;2023-08-07T11:31:53;96620.88;;;14.71;76.49
70589;BME280;58152;49.202;18.744;2023-08-07T11:34:19;96625.81;;;14.76;76.50
70589;BME280;58152;49.202;18.744;2023-08-07T11:36:45;96623.69;;;14.81;76.09
70589;BME280;58152;49.202;18.744;2023-08-07T11:39:11;96617.22;;;14.85;75.71
70589;BME280;58152;49.202;18.744;2023-08-07T11:41:37;96622.75;;;14.93;75.55
70589;BME280;58152;49.202;18.744;2023-08-07T11:44:03;96627.47;;;15.00;75.51
70589;BME280;58152;49.202;18.744;2023-08-07T11:46:28;96620.38;;;15.01;75.97
70589;BME280;58152;49.202;18.744;2023-08-07T11:49:13;96621.84;;;15.05;75.29
70589;BME280;58152;49.202;18.744;2023-08-07T11:51:38;96625.47;;;15.04;75.22
70589;BME280;58152;49.202;18.744;2023-08-07T11:54:19;96625.66;;;15.01;74.79
70589;BME280;58152;49.202;18.744;2023-08-07T11:56:50;96642.97;;;15.05;74.66
70589;BME280;58152;49.202;18.744;2023-08-07T11:59:16;96641.41;;;15.03;74.00
70589;BME280;58152;49.202;18.744;2023-08-07T12:01:43;96633.59;;;15.01;73.91
70589;BME280;58152;49.202;18.744;2023-08-07T12:04:09;96641.41;;;15.03;74.25
70589;BME280;58152;49.202;18.744;2023-08-07T12:06:55;96642.28;;;15.03;73.50
70589;BME280;58152;49.202;18.744;2023-08-07T12:13:00;96641.41;;;15.03;73.63
70589;BME280;58152;49.202;18.744;2023-08-07T12:15:31;96639.72;;;15.02;74.01
70589;BME280;58152;49.202;18.744;2023-08-07T12:18:02;96648.13;;;15.07;73.41
70589;BME280;58152;49.202;18.744;2023-08-07T12:20:28;96641.31;;;15.04;73.59
70589;BME280;58152;49.202;18.744;2023-08-07T12:22:58;96651.53;;;15.09;73.24
70589;BME280;58152;49.202;18.744;2023-08-07T12:25:24;96647.56;;;15.03;73.61
70589;BME280;58152;49.202;18.744;2023-08-07T12:28:00;96651.03;;;15.04;73.40
70589;BME280;58152;49.202;18.744;2023-08-07T12:30:28;96663.16;;;15.06;73.56
70589;BME280;58152;49.202;18.744;2023-08-07T12:33:07;96656.31;;;15.04;73.69
70589;BME280;58152;49.202;18.744;2023-08-07T12:35:39;96664.25;;;15.04;73.59
70589;BME280;58152;49.202;18.744;2023-08-07T12:38:08;96671.81;;;15.08;73.40
70589;BME280;58152;49.202;18.744;2023-08-07T12:40:34;96669.53;;;15.04;74.09
70589;BME280;58152;49.202;18.744;2023-08-07T12:43:02;96681.44;;;15.09;74.11
70589;BME280;58152;49.202;18.744;2023-08-07T12:45:28;96683.31;;;15.07;73.70
70589;BME280;58152;49.202;18.744;2023-08-07T12:47:54;96684.53;;;15.03;74.21
70589;BME280;58152;49.202;18.744;2023-08-07T12:50:19;96694.97;;;15.05;74.40
70589;BME280;58152;49.202;18.744;2023-08-07T12:52:45;96695.31;;;15.00;73.88
70589;BME280;58152;49.202;18.744;2023-08-07T12:55:10;96695.19;;;15.02;73.91
70589;BME280;58152;49.202;18.744;2023-08-07T12:57:37;96705.75;;;15.02;74.03
70589;BME280;58152;49.202;18.744;2023-08-07T13:00:03;96706.84;;;14.99;73.98
70589;BME280;58152;49.202;18.744;2023-08-07T13:02:29;96701.66;;;14.97;74.28
70589;BME280;58152;49.202;18.744;2023-08-07T13:04:55;96704.53;;;14.94;74.15
70589;BME280;58152;49.202;18.744;2023-08-07T13:07:22;96713.38;;;14.93;74.72
70589;BME280;58152;49.202;18.744;2023-08-07T13:09:48;96714.34;;;14.92;75.18
70589;BME280;58152;49.202;18.744;2023-08-07T13:12:13;96712.56;;;14.93;75.56
70589;BME280;58152;49.202;18.744;2023-08-07T13:14:38;96712.56;;;14.93;75.20
70589;BME280;58152;49.202;18.744;2023-08-07T13:17:04;96720.47;;;14.93;75.45
70589;BME280;58152;49.202;18.744;2023-08-07T13:19:29;96719.97;;;14.88;75.34
70589;BME280;58152;49.202;18.744;2023-08-07T13:21:55;96739.28;;;14.88;75.47
70589;BME280;58152;49.202;18.744;2023-08-07T13:24:20;96741.09;;;14.88;75.83
70589;BME280;58152;49.202;18.744;2023-08-07T13:26:46;96732.66;;;14.83;75.68
70589;BME280;58152;49.202;18.744;2023-08-07T13:29:11;96741.22;;;14.86;76.06
70589;BME280;58152;49.202;18.744;2023-08-07T13:31:37;96728.84;;;14.87;76.07
70589;BME280;58152;49.202;18.744;2023-08-07T13:34:02;96725.50;;;14.85;75.71
70589;BME280;58152;49.202;18.744;2023-08-07T13:36:33;96735.59;;;14.91;76.26
70589;BME280;58152;49.202;18.744;2023-08-07T13:38:58;96737.50;;;14.89;76.02
70589;BME280;58152;49.202;18.744;2023-08-07T13:41:26;96746.78;;;14.94;76.13
70589;BME280;58152;49.202;18.744;2023-08-07T13:43:51;96749.44;;;14.94;76.30
70589;BME280;58152;49.202;18.744;2023-08-07T13:46:17;96756.53;;;14.94;76.58
70589;BME280;58152;49.202;18.744;2023-08-07T13:48:44;96760.72;;;14.96;76.64
70589;BME280;58152;49.202;18.744;2023-08-07T13:51:10;96769.81;;;14.92;76.37
70589;BME280;58152;49.202;18.744;2023-08-07T13:53:35;96767.94;;;14.94;76.77
70589;BME280;58152;49.202;18.744;2023-08-07T13:56:01;96773.09;;;14.96;76.69
70589;BME280;58152;49.202;18.744;2023-08-07T13:58:26;96777.53;;;14.95;76.53
70589;BME280;58152;49.202;18.744;2023-08-07T14:00:53;96774.75;;;14.97;76.18
70589;BME280;58152;49.202;18.744;2023-08-07T14:03:18;96779.41;;;14.93;76.11
70589;BME280;58152;49.202;18.744;2023-08-07T14:05:44;96785.56;;;14.94;76.16
70589;BME280;58152;49.202;18.744;2023-08-07T14:08:10;96781.72;;;14.98;76.40
70589;BME280;58152;49.202;18.744;2023-08-07T14:10:36;96785.84;;;15.02;76.82